Terminal Aerodrome Forecast
Issued by NWS Wichita, KS

Home | Current Version | Previous Version | Text Only | Print | Product List | Glossary On
Versions: 1 2 3 4 5 6 7 8 9 10 11 12 13
882
FTUS43 KICT 060520
TAFICT
TAF
KICT 060520Z 0606/0706 15004KT P6SM SKC
     FM061400 19013KT P6SM BKN100
     FM061800 19017G25KT P6SM SCT130 BKN250=

USA.gov is the U.S. government's official web portal to all federal, state and local government web resources and services.